Time;durP1;ratioP1;P1;durP2;ratioP2;P2;SDS_P1;SDS_P2;PMS_P1;PMS_P2;Temp;Humidity;BMP_temperature;BMP_pressure;BME280_temperature;BME280_humidity;BME280_pressure;Samples;Min_cycle;Max_cycle;Signal;HPM_P1;HPM_P2
2023/10/18 00:01:00;;;;;;;0.10;0.10;;;7.00;99.90;;;;;;5067711;28;20190;-80
2023/10/18 00:03:29;;;;;;;0.10;0.10;;;7.00;99.90;;;;;;5067630;28;20273;-79
2023/10/18 00:06:00;;;;;;;0.10;0.10;;;6.90;99.90;;;;;;5066219;28;20189;-79
2023/10/18 00:08:26;;;;;;;0.10;0.10;;;6.90;99.90;;;;;;5067160;28;20231;-79
2023/10/18 00:10:53;;;;;;;0.10;0.10;;;6.90;99.90;;;;;;5061811;28;20688;-79
2023/10/18 00:13:23;;;;;;;0.00;0.00;;;7.00;99.90;;;;;;5064116;28;20218;-79
2023/10/18 00:15:52;;;;;;;0.10;0.10;;;7.00;99.90;;;;;;5066786;28;20284;-79
2023/10/18 00:18:19;;;;;;;0.07;0.07;;;7.00;99.90;;;;;;5060097;28;20185;-79
2023/10/18 00:20:45;;;;;;;0.10;0.10;;;7.00;99.90;;;;;;5066415;28;20199;-79
2023/10/18 00:23:11;;;;;;;0.10;0.10;;;7.00;99.90;;;;;;5067470;28;20179;-79
2023/10/18 00:25:36;;;;;;;0.10;0.10;;;7.00;99.90;;;;;;5060667;28;20193;-79
2023/10/18 00:28:03;;;;;;;0.03;0.03;;;7.00;99.90;;;;;;5068381;28;20240;-79
2023/10/18 00:30:30;;;;;;;0.00;0.00;;;7.00;99.90;;;;;;5066983;28;20222;-79
2023/10/18 00:32:57;;;;;;;0.10;0.10;;;7.00;99.90;;;;;;5067542;28;20198;-79
2023/10/18 00:35:23;;;;;;;0.10;0.10;;;7.00;99.90;;;;;;5068584;28;20211;-79
2023/10/18 00:37:50;;;;;;;0.10;0.10;;;6.90;99.90;;;;;;5067106;28;20264;-79
2023/10/18 00:42:53;;;;;;;0.10;0.10;;;7.00;99.90;;;;;;5070008;28;20183;-79
2023/10/18 00:45:21;;;;;;;0.10;0.10;;;7.00;99.90;;;;;;5067135;28;20209;-79
2023/10/18 00:47:48;;;;;;;0.10;0.10;;;7.00;99.90;;;;;;5067745;28;20564;-79
2023/10/18 00:50:14;;;;;;;0.10;0.10;;;7.00;99.90;;;;;;5064639;28;20189;-79
2023/10/18 00:52:40;;;;;;;0.10;0.10;;;6.90;99.90;;;;;;5067674;28;20241;-78
2023/10/18 00:55:09;;;;;;;0.00;0.00;;;7.00;99.90;;;;;;5069401;28;20211;-79
2023/10/18 00:57:35;;;;;;;0.00;0.00;;;6.90;99.90;;;;;;5065118;28;20218;-79
2023/10/18 01:00:09;;;;;;;0.10;0.10;;;6.90;99.90;;;;;;5061055;28;21699;-79
2023/10/18 01:02:39;;;;;;;0.10;0.10;;;6.90;99.90;;;;;;5069255;28;20182;-80
2023/10/18 01:05:09;;;;;;;0.10;0.10;;;6.90;99.90;;;;;;5061607;28;20292;-79
2023/10/18 01:07:35;;;;;;;0.03;0.03;;;6.90;99.90;;;;;;5068155;28;20217;-79
2023/10/18 01:10:06;;;;;;;0.10;0.10;;;6.90;99.90;;;;;;5067321;28;20211;-79
2023/10/18 01:12:34;;;;;;;0.10;0.10;;;6.90;99.90;;;;;;5072965;28;20210;-79
2023/10/18 01:15:00;;;;;;;0.10;0.10;;;6.90;99.90;;;;;;5072416;28;20213;-80
2023/10/18 01:17:25;;;;;;;0.10;0.10;;;6.90;99.90;;;;;;5072860;28;20238;-79
2023/10/18 01:19:53;;;;;;;0.10;0.10;;;6.90;99.90;;;;;;5068986;28;20188;-80
2023/10/18 01:22:19;;;;;;;0.10;0.10;;;6.90;99.90;;;;;;5072534;28;20193;-79
2023/10/18 01:24:45;;;;;;;1.43;1.33;;;6.90;99.90;;;;;;5072347;28;20192;-79
2023/10/18 01:27:12;;;;;;;0.10;0.10;;;6.80;99.90;;;;;;5064610;28;20207;-79
2023/10/18 01:29:39;;;;;;;0.10;0.10;;;6.80;99.90;;;;;;5070289;28;20278;-80
2023/10/18 01:32:04;;;;;;;0.10;0.10;;;6.90;99.90;;;;;;5070055;28;20210;-79
2023/10/18 01:34:31;;;;;;;0.10;0.10;;;6.80;99.90;;;;;;5072464;28;20220;-79
2023/10/18 01:36:59;;;;;;;0.00;0.00;;;6.80;99.90;;;;;;5065982;28;20228;-79
2023/10/18 01:39:31;;;;;;;0.10;0.10;;;6.80;99.90;;;;;;5071053;28;20687;-79
2023/10/18 01:42:00;;;;;;;0.10;0.10;;;6.80;99.90;;;;;;5063619;28;20367;-79
2023/10/18 01:44:30;;;;;;;0.10;0.10;;;6.80;99.90;;;;;;5069800;28;20182;-79
2023/10/18 01:47:00;;;;;;;0.10;0.10;;;6.70;99.90;;;;;;5064669;28;20197;-79
2023/10/18 01:49:26;;;;;;;0.10;0.10;;;6.70;99.90;;;;;;5065831;28;20177;-79
2023/10/18 01:51:53;;;;;;;0.10;0.10;;;6.60;99.90;;;;;;5066881;28;20654;-80
2023/10/18 01:54:25;;;;;;;0.10;0.10;;;6.60;99.90;;;;;;5071553;28;20842;-79
2023/10/18 01:56:54;;;;;;;0.10;0.10;;;6.60;99.90;;;;;;5070516;28;20692;-79
2023/10/18 01:59:24;;;;;;;0.10;0.10;;;6.60;99.90;;;;;;5066445;28;20186;-79
2023/10/18 02:01:53;;;;;;;0.10;0.10;;;6.60;99.90;;;;;;5071513;28;20170;-79
2023/10/18 02:04:31;;;;;;;0.10;0.10;;;6.60;99.90;;;;;;5071224;28;20193;-79
2023/10/18 02:06:59;;;;;;;0.10;0.10;;;6.50;99.90;;;;;;5068598;28;20201;-79
2023/10/18 02:09:32;;;;;;;0.10;0.10;;;6.50;99.90;;;;;;5069248;28;20183;-79
2023/10/18 02:11:57;;;;;;;0.10;0.10;;;6.50;99.90;;;;;;5062994;28;20194;-79
2023/10/18 02:14:24;;;;;;;0.00;0.00;;;6.50;99.90;;;;;;5069738;28;20660;-79
2023/10/18 02:16:49;;;;;;;0.10;0.10;;;6.50;99.90;;;;;;5069387;28;20204;-79
2023/10/18 02:19:21;;;;;;;0.10;0.10;;;6.50;99.90;;;;;;5070008;28;20185;-79
2023/10/18 02:21:47;;;;;;;0.10;0.10;;;6.60;99.90;;;;;;5063027;28;20183;-79
2023/10/18 02:24:13;;;;;;;0.00;0.00;;;6.50;99.90;;;;;;5069518;28;20613;-79
2023/10/18 02:26:48;;;;;;;0.10;0.10;;;6.50;99.90;;;;;;5068545;28;20213;-79
2023/10/18 02:29:13;;;;;;;0.10;0.10;;;6.50;99.90;;;;;;5086584;28;20187;-79
2023/10/18 02:31:40;;;;;;;0.10;0.10;;;6.60;99.90;;;;;;5064793;28;20658;-79
2023/10/18 02:34:06;;;;;;;0.10;0.10;;;6.60;99.90;;;;;;5066924;28;20205;-79
2023/10/18 02:36:45;;;;;;;0.07;0.07;;;6.60;99.90;;;;;;5062405;28;20217;-79
2023/10/18 02:39:13;;;;;;;0.00;0.00;;;6.50;99.90;;;;;;5070110;28;20177;-79
2023/10/18 02:41:39;;;;;;;0.10;0.10;;;6.50;99.90;;;;;;5062708;28;20192;-79
2023/10/18 02:44:20;;;;;;;0.10;0.10;;;6.60;99.90;;;;;;5070549;28;20269;-79
2023/10/18 02:46:47;;;;;;;0.10;0.10;;;6.50;99.90;;;;;;5067478;28;20198;-79
2023/10/18 02:49:13;;;;;;;0.10;0.10;;;6.60;99.90;;;;;;5069987;28;20187;-79
2023/10/18 02:51:38;;;;;;;0.00;0.00;;;6.50;99.90;;;;;;5066778;28;20174;-79
2023/10/18 02:54:16;;;;;;;0.00;0.00;;;6.50;99.90;;;;;;5069082;28;20227;-79
2023/10/18 02:56:50;;;;;;;0.10;0.10;;;6.50;99.90;;;;;;5063873;28;20292;-79
2023/10/18 02:59:25;;;;;;;0.10;0.10;;;6.50;99.90;;;;;;5068302;28;20779;-79
2023/10/18 03:01:55;;;;;;;0.10;0.10;;;6.50;99.90;;;;;;5060620;28;20181;-79
2023/10/18 03:04:22;;;;;;;0.10;0.10;;;6.50;99.90;;;;;;5069279;28;20601;-79
2023/10/18 03:06:50;;;;;;;0.10;0.10;;;6.40;99.90;;;;;;5066028;28;20571;-79
2023/10/18 03:09:38;;;;;;;0.10;0.10;;;6.50;99.90;;;;;;5064978;28;20184;-79
2023/10/18 03:12:13;;;;;;;0.10;0.10;;;6.50;99.90;;;;;;5066074;28;20340;-79
2023/10/18 03:14:39;;;;;;;0.10;0.10;;;6.40;99.90;;;;;;5069181;28;20263;-79
2023/10/18 03:17:15;;;;;;;0.10;0.10;;;6.40;99.90;;;;;;5067160;28;20198;-79
2023/10/18 03:19:44;;;;;;;0.10;0.10;;;6.40;99.90;;;;;;5067886;28;20186;-79
2023/10/18 03:22:11;;;;;;;0.10;0.10;;;6.30;99.90;;;;;;5069961;28;20171;-79
2023/10/18 03:24:37;;;;;;;0.10;0.10;;;6.20;99.90;;;;;;5064971;28;20178;-79
2023/10/18 03:27:08;;;;;;;0.00;0.00;;;6.20;99.90;;;;;;5067520;28;20204;-79
2023/10/18 03:29:37;;;;;;;0.10;0.10;;;6.30;99.90;;;;;;5066840;28;20680;-79
2023/10/18 03:32:06;;;;;;;0.10;0.10;;;6.20;99.90;;;;;;5067832;28;21145;-79
2023/10/18 03:34:37;;;;;;;0.00;0.00;;;6.20;99.90;;;;;;5067757;28;20175;-79
2023/10/18 03:37:04;;;;;;;0.10;0.10;;;6.30;99.90;;;;;;5067448;28;20205;-79
2023/10/18 03:39:30;;;;;;;0.10;0.10;;;6.30;99.90;;;;;;5065210;28;20285;-79
2023/10/18 03:41:58;;;;;;;0.10;0.10;;;6.40;99.90;;;;;;5069064;28;20600;-79
2023/10/18 03:44:27;;;;;;;0.10;0.10;;;6.30;99.90;;;;;;5066938;28;20193;-79
2023/10/18 03:47:24;;;;;;;0.10;0.10;;;6.30;99.90;;;;;;5065300;28;20218;-79
2023/10/18 03:49:40;;;;;;;0.10;0.10;;;6.30;99.90;;;;;;5068203;28;20203;-79
2023/10/18 03:57:19;;;;;;;0.10;0.10;;;6.30;99.90;;;;;;5068902;28;20218;-79
2023/10/18 03:59:46;;;;;;;0.03;0.03;;;6.10;99.90;;;;;;5068888;28;20230;-80
2023/10/18 04:02:16;;;;;;;0.10;0.10;;;6.10;99.90;;;;;;5068007;28;20559;-79
2023/10/18 04:04:45;;;;;;;0.10;0.10;;;6.10;99.90;;;;;;5067729;28;20178;-79
2023/10/18 04:07:20;;;;;;;0.10;0.10;;;6.20;99.90;;;;;;5061436;28;20626;-79
2023/10/18 04:12:19;;;;;;;0.57;0.57;;;6.10;99.90;;;;;;5068490;28;20191;-80
2023/10/18 04:14:58;;;;;;;0.10;0.10;;;6.00;99.90;;;;;;5069541;28;20513;-79
2023/10/18 04:17:36;;;;;;;0.10;0.10;;;6.00;99.90;;;;;;5067881;28;20206;-79
2023/10/18 04:20:23;;;;;;;0.00;0.00;;;5.90;99.90;;;;;;5067939;28;20633;-79
2023/10/18 04:22:50;;;;;;;0.00;0.00;;;6.00;99.90;;;;;;5068006;28;20267;-79
2023/10/18 04:25:36;;;;;;;0.10;0.10;;;5.90;99.90;;;;;;5061380;28;20231;-79
2023/10/18 04:28:02;;;;;;;0.03;0.03;;;5.90;99.90;;;;;;5066829;28;20221;-79
2023/10/18 04:30:31;;;;;;;0.10;0.10;;;5.90;99.90;;;;;;5063660;28;20847;-79
2023/10/18 04:33:00;;;;;;;0.33;0.33;;;6.00;99.90;;;;;;5066847;28;20207;-79
2023/10/18 04:35:36;;;;;;;0.00;0.00;;;6.10;99.90;;;;;;5067171;28;20227;-79
2023/10/18 04:38:07;;;;;;;0.10;0.10;;;6.10;99.90;;;;;;5066893;28;20207;-79
2023/10/18 04:40:34;;;;;;;0.10;0.10;;;6.10;99.90;;;;;;5060418;28;20184;-79
2023/10/18 04:43:01;;;;;;;0.00;0.00;;;6.10;99.90;;;;;;5071304;28;20192;-79
2023/10/18 04:45:29;;;;;;;0.10;0.10;;;6.10;99.90;;;;;;5071775;28;20563;-79
2023/10/18 04:48:03;;;;;;;0.00;0.00;;;6.10;99.90;;;;;;5067146;28;20209;-79
2023/10/18 04:50:33;;;;;;;0.00;0.00;;;6.10;99.90;;;;;;5067008;28;20662;-79
2023/10/18 04:52:59;;;;;;;0.10;0.10;;;6.20;99.90;;;;;;5067616;28;20197;-79
2023/10/18 04:55:32;;;;;;;0.10;0.10;;;6.10;99.90;;;;;;5072682;28;20178;-79
2023/10/18 04:57:58;;;;;;;0.10;0.10;;;6.10;99.90;;;;;;5066114;28;20198;-79
2023/10/18 05:00:35;;;;;;;0.10;0.10;;;6.20;99.90;;;;;;5071188;28;20500;-79
2023/10/18 05:03:06;;;;;;;0.10;0.10;;;6.20;99.90;;;;;;5072036;28;20189;-79
2023/10/18 05:05:37;;;;;;;0.10;0.10;;;6.20;99.90;;;;;;5071974;28;20175;-79
2023/10/18 05:08:06;;;;;;;0.10;0.10;;;6.40;99.90;;;;;;5068613;28;20550;-79
2023/10/18 05:10:33;;;;;;;0.10;0.10;;;6.40;99.90;;;;;;5070899;28;20312;-80
2023/10/18 05:13:18;;;;;;;0.10;0.10;;;6.50;99.90;;;;;;5071786;28;20672;-80
2023/10/18 05:15:44;;;;;;;0.20;0.20;;;6.50;99.90;;;;;;5067727;28;20247;-79
2023/10/18 05:18:15;;;;;;;0.10;0.10;;;6.60;99.90;;;;;;5063354;28;20763;-78
2023/10/18 05:20:55;;;;;;;0.10;0.10;;;6.50;99.90;;;;;;5069183;28;20270;-79
2023/10/18 05:23:27;;;;;;;0.10;0.10;;;6.50;99.90;;;;;;5070683;28;20187;-78
2023/10/18 05:26:16;;;;;;;0.10;0.10;;;6.60;99.90;;;;;;5068596;28;20186;-79
2023/10/18 05:28:49;;;;;;;0.10;0.10;;;6.60;99.90;;;;;;5070309;28;20186;-79
2023/10/18 05:34:18;;;;;;;0.10;0.10;;;6.60;99.90;;;;;;5070636;28;20239;-79
2023/10/18 05:41:51;;;;;;;0.10;0.10;;;6.60;99.90;;;;;;5069578;28;20447;-79
2023/10/18 05:44:17;;;;;;;0.10;0.10;;;6.60;99.90;;;;;;5071765;28;20185;-79
2023/10/18 05:46:46;;;;;;;0.10;0.10;;;6.60;99.90;;;;;;5070172;28;20235;-79
2023/10/18 05:49:23;;;;;;;0.10;0.10;;;6.60;99.90;;;;;;5068597;28;20185;-79
2023/10/18 05:51:52;;;;;;;0.20;0.20;;;6.60;99.90;;;;;;5065858;28;20174;-79
2023/10/18 05:54:22;;;;;;;0.10;0.10;;;6.60;99.90;;;;;;5068005;28;20201;-79
2023/10/18 05:56:53;;;;;;;0.00;0.00;;;6.70;99.90;;;;;;5069029;28;20198;-79
2023/10/18 06:01:49;;;;;;;0.00;0.00;;;6.60;99.90;;;;;;5071864;28;20184;-78
2023/10/18 06:04:23;;;;;;;0.10;0.10;;;6.70;99.90;;;;;;5067528;28;20672;-79
2023/10/18 06:06:57;;;;;;;0.10;0.10;;;6.70;99.90;;;;;;5067650;28;20202;-79
2023/10/18 06:09:32;;;;;;;0.10;0.10;;;6.80;99.90;;;;;;5068486;28;20191;-79
2023/10/18 06:12:00;;;;;;;0.10;0.10;;;6.80;99.90;;;;;;5067022;28;20616;-79
2023/10/18 06:14:33;;;;;;;0.10;0.10;;;6.80;99.90;;;;;;5069122;28;20245;-79
2023/10/18 06:17:12;;;;;;;0.10;0.10;;;6.90;99.90;;;;;;5065841;28;20205;-79
2023/10/18 06:19:38;;;;;;;0.00;0.00;;;6.80;99.90;;;;;;5070624;28;20174;-79
2023/10/18 06:22:28;;;;;;;0.10;0.10;;;6.80;99.90;;;;;;5071227;28;20185;-79
2023/10/18 06:24:55;;;;;;;0.10;0.10;;;6.80;99.90;;;;;;5069438;28;20652;-79
2023/10/18 06:27:21;;;;;;;0.10;0.10;;;6.90;99.90;;;;;;5067286;28;20213;-80
2023/10/18 06:29:51;;;;;;;0.10;0.10;;;6.90;99.90;;;;;;5060757;28;20185;-80
2023/10/18 06:32:17;;;;;;;0.10;0.10;;;6.90;99.90;;;;;;5068794;28;20665;-80
2023/10/18 06:34:48;;;;;;;0.10;0.10;;;7.00;99.90;;;;;;5069931;28;20174;-80
2023/10/18 06:37:23;;;;;;;0.10;0.10;;;7.00;99.90;;;;;;5069991;28;20206;-80
2023/10/18 06:39:54;;;;;;;0.10;0.10;;;7.00;99.90;;;;;;5070851;28;20179;-80
2023/10/18 06:42:22;;;;;;;0.73;0.63;;;7.00;99.90;;;;;;5066676;28;20218;-79
2023/10/18 06:44:47;;;;;;;0.10;0.10;;;6.90;99.90;;;;;;5070704;28;20246;-81
2023/10/18 06:47:13;;;;;;;0.00;0.00;;;7.10;99.90;;;;;;5060892;28;20916;-79
2023/10/18 06:49:42;;;;;;;2.90;2.80;;;7.20;99.90;;;;;;5065767;28;20183;-79
2023/10/18 06:52:09;;;;;;;0.10;0.10;;;7.30;99.90;;;;;;5066573;28;20661;-79
2023/10/18 06:54:38;;;;;;;0.10;0.10;;;7.40;99.90;;;;;;5068805;28;20220;-79
2023/10/18 06:57:18;;;;;;;0.10;0.10;;;7.60;99.90;;;;;;5069671;28;20286;-80
2023/10/18 06:59:50;;;;;;;0.10;0.10;;;7.70;99.90;;;;;;5069095;28;20192;-79
2023/10/18 07:02:16;;;;;;;0.10;0.10;;;7.90;99.90;;;;;;5067777;28;20243;-79
2023/10/18 07:04:51;;;;;;;0.00;0.00;;;8.10;99.90;;;;;;5065868;28;20179;-79
2023/10/18 07:07:20;;;;;;;0.10;0.10;;;8.10;99.90;;;;;;5067052;28;20677;-80
2023/10/18 07:09:51;;;;;;;0.20;0.20;;;8.20;99.90;;;;;;5064090;28;20234;-79
2023/10/18 07:12:19;;;;;;;0.10;0.10;;;8.20;99.90;;;;;;5069201;28;20205;-79
2023/10/18 07:14:45;;;;;;;0.10;0.10;;;8.10;99.90;;;;;;5070029;28;20704;-79
2023/10/18 07:17:11;;;;;;;0.10;0.10;;;8.10;99.90;;;;;;5068989;28;20243;-80
2023/10/18 07:19:48;;;;;;;0.10;0.10;;;8.10;99.90;;;;;;5068120;28;20282;-80
2023/10/18 07:22:18;;;;;;;0.10;0.10;;;8.30;99.90;;;;;;5068632;28;20192;-79
2023/10/18 07:24:54;;;;;;;0.07;0.07;;;8.20;99.90;;;;;;5068272;28;20177;-79
2023/10/18 07:27:20;;;;;;;0.40;0.40;;;8.30;99.90;;;;;;5068226;28;20203;-79
2023/10/18 07:29:46;;;;;;;0.10;0.10;;;8.30;99.90;;;;;;5063849;28;20188;-79
2023/10/18 07:32:12;;;;;;;0.10;0.10;;;8.40;99.90;;;;;;5067339;28;20176;-80
2023/10/18 07:34:38;;;;;;;0.10;0.10;;;8.40;99.90;;;;;;5068603;28;20190;-80
2023/10/18 07:37:24;;;;;;;0.10;0.10;;;8.60;99.90;;;;;;5068535;28;20196;-80
2023/10/18 07:39:59;;;;;;;0.10;0.10;;;8.70;99.90;;;;;;5067869;28;20187;-79
2023/10/18 07:42:34;;;;;;;0.10;0.10;;;9.00;99.90;;;;;;5069311;28;20176;-80
2023/10/18 07:45:04;;;;;;;0.00;0.00;;;9.30;99.90;;;;;;5067296;28;20188;-79
2023/10/18 07:47:32;;;;;;;0.03;0.03;;;9.20;99.90;;;;;;5067105;28;20205;-79
2023/10/18 07:49:58;;;;;;;0.00;0.00;;;9.10;99.90;;;;;;5065520;28;20667;-79
2023/10/18 07:52:24;;;;;;;5.10;4.80;;;9.30;99.90;;;;;;5067923;28;20198;-79
2023/10/18 07:54:49;;;;;;;0.10;0.10;;;9.20;99.90;;;;;;5068992;28;20189;-80
2023/10/18 07:57:15;;;;;;;0.10;0.10;;;9.50;99.90;;;;;;5058978;28;20696;-80
2023/10/18 07:59:47;;;;;;;0.10;0.10;;;9.80;99.90;;;;;;5064576;28;20197;-80
2023/10/18 08:02:19;;;;;;;0.00;0.00;;;9.60;99.90;;;;;;5067106;28;20197;-80
2023/10/18 08:04:48;;;;;;;0.10;0.10;;;9.60;99.90;;;;;;5060778;28;20172;-80
2023/10/18 08:07:19;;;;;;;0.10;0.10;;;9.70;99.90;;;;;;5065638;28;20763;-80
2023/10/18 08:09:48;;;;;;;0.03;0.03;;;9.90;99.90;;;;;;5066941;28;20210;-80
2023/10/18 08:12:28;;;;;;;0.00;0.00;;;9.60;99.90;;;;;;5069722;28;20204;-80
2023/10/18 08:14:54;;;;;;;0.10;0.10;;;9.40;99.90;;;;;;5067083;28;20179;-80
2023/10/18 08:17:30;;;;;;;0.00;0.00;;;9.40;99.90;;;;;;5067620;28;20212;-80
2023/10/18 08:20:29;;;;;;;0.00;0.00;;;9.50;99.90;;;;;;5067845;28;20311;-80
2023/10/18 08:22:55;;;;;;;0.10;0.10;;;9.60;99.90;;;;;;5068224;28;20208;-80
2023/10/18 08:25:24;;;;;;;0.30;0.30;;;9.80;99.90;;;;;;5069486;28;20185;-80
2023/10/18 08:27:53;;;;;;;0.10;0.10;;;9.90;99.90;;;;;;5068914;28;20204;-80
2023/10/18 08:33:05;;;;;;;0.10;0.10;;;9.90;99.90;;;;;;5066417;28;20200;-80
2023/10/18 08:35:31;;;;;;;0.10;0.10;;;9.90;99.90;;;;;;5066168;28;20192;-80
2023/10/18 08:38:01;;;;;;;0.10;0.10;;;9.90;99.90;;;;;;5067681;28;20195;-79
2023/10/18 08:40:37;;;;;;;0.10;0.10;;;10.10;99.90;;;;;;5069641;28;20693;-80
2023/10/18 08:43:23;;;;;;;1.13;1.13;;;10.50;99.90;;;;;;5059746;28;20213;-80
2023/10/18 08:45:50;;;;;;;0.00;0.00;;;10.40;99.90;;;;;;5083818;28;20238;-80
2023/10/18 08:48:17;;;;;;;0.00;0.00;;;10.50;99.90;;;;;;5062400;28;20180;-80
2023/10/18 08:50:45;;;;;;;0.10;0.10;;;10.80;99.90;;;;;;5064603;28;20219;-79
2023/10/18 08:53:15;;;;;;;0.10;0.10;;;11.00;99.90;;;;;;5066126;28;20254;-79
2023/10/18 08:55:44;;;;;;;0.00;0.00;;;10.60;99.90;;;;;;5062059;28;20208;-79
2023/10/18 08:58:12;;;;;;;0.10;0.10;;;11.10;99.90;;;;;;5060690;28;21061;-80
2023/10/18 09:03:07;;;;;;;0.10;0.10;;;10.60;99.90;;;;;;5067585;28;20198;-80
2023/10/18 09:05:35;;;;;;;0.10;0.10;;;10.90;99.90;;;;;;5059158;28;20186;-79
2023/10/18 09:08:04;;;;;;;0.10;0.10;;;10.80;99.90;;;;;;5063718;28;20276;-79
2023/10/18 09:13:33;;;;;;;0.10;0.10;;;11.20;99.90;;;;;;5066632;28;20294;-79
2023/10/18 09:18:20;;;;;;;0.10;0.10;;;11.10;99.90;;;;;;5067726;28;20275;-79
2023/10/18 09:20:47;;;;;;;0.10;0.10;;;11.00;99.90;;;;;;5058666;28;20181;-80
2023/10/18 09:23:24;;;;;;;0.30;0.30;;;11.20;99.90;;;;;;5066421;28;20184;-80
2023/10/18 09:28:32;;;;;;;0.10;0.10;;;11.10;99.90;;;;;;5071875;28;20188;-80
2023/10/18 09:31:11;;;;;;;0.10;0.10;;;11.00;99.90;;;;;;5069210;28;20199;-81
2023/10/18 09:33:48;;;;;;;0.10;0.10;;;11.00;99.90;;;;;;5064722;28;20247;-80
2023/10/18 09:36:19;;;;;;;0.10;0.10;;;11.50;99.90;;;;;;5064472;28;20226;-80
2023/10/18 09:38:48;;;;;;;0.10;0.10;;;11.00;99.90;;;;;;5068526;28;20169;-81
2023/10/18 09:41:15;;;;;;;0.10;0.10;;;11.50;99.90;;;;;;5070372;28;20675;-80
2023/10/18 09:43:42;;;;;;;0.47;0.47;;;11.30;99.90;;;;;;5067629;28;20196;-80
2023/10/18 09:46:08;;;;;;;2.07;2.00;;;11.40;99.90;;;;;;5068732;28;20197;-80
2023/10/18 09:48:41;;;;;;;0.10;0.10;;;11.30;99.90;;;;;;5066869;28;20188;-81
2023/10/18 09:51:08;;;;;;;0.10;0.10;;;11.30;99.90;;;;;;5070591;28;20223;-80
2023/10/18 09:53:48;;;;;;;0.10;0.10;;;10.90;99.90;;;;;;5069801;28;20226;-80
2023/10/18 09:56:17;;;;;;;0.10;0.10;;;11.00;99.90;;;;;;5068417;28;20307;-79
2023/10/18 09:58:46;;;;;;;0.10;0.10;;;11.20;99.90;;;;;;5072064;28;20184;-80
2023/10/18 10:01:13;;;;;;;0.00;0.00;;;11.10;99.90;;;;;;5069358;28;20181;-80
2023/10/18 10:03:52;;;;;;;1.40;1.40;;;11.00;99.90;;;;;;5067430;28;20199;-80
2023/10/18 10:06:21;;;;;;;0.10;0.10;;;10.50;99.90;;;;;;5066363;28;20244;-80
2023/10/18 10:08:50;;;;;;;0.10;0.10;;;10.90;99.90;;;;;;5067180;28;20606;-80
2023/10/18 10:11:19;;;;;;;0.10;0.10;;;10.90;99.90;;;;;;5067621;28;20200;-80
2023/10/18 10:13:49;;;;;;;0.00;0.00;;;10.80;99.90;;;;;;5069575;28;20198;-80
2023/10/18 10:16:17;;;;;;;0.10;0.10;;;11.00;99.90;;;;;;5067002;28;20224;-80
2023/10/18 10:18:47;;;;;;;0.10;0.10;;;11.10;99.90;;;;;;5064481;28;20188;-80
2023/10/18 10:21:15;;;;;;;0.10;0.10;;;11.60;99.90;;;;;;5064862;28;20728;-79
2023/10/18 10:23:44;;;;;;;0.00;0.00;;;12.20;99.90;;;;;;5070731;28;20185;-80
2023/10/18 10:26:12;;;;;;;0.10;0.10;;;12.50;99.90;;;;;;5069993;28;20243;-80
2023/10/18 10:32:06;;;;;;;0.10;0.10;;;12.60;99.90;;;;;;5069590;28;20177;-81
2023/10/18 10:34:38;;;;;;;0.10;0.10;;;13.00;99.90;;;;;;5063350;28;20545;-80
2023/10/18 10:37:10;;;;;;;0.03;0.03;;;12.10;99.90;;;;;;5068831;28;20199;-80
2023/10/18 10:39:45;;;;;;;0.10;0.10;;;12.00;99.90;;;;;;5067849;28;20188;-80
2023/10/18 10:42:43;;;;;;;0.10;0.10;;;12.10;99.90;;;;;;5060982;28;20176;-80
2023/10/18 10:45:10;;;;;;;0.10;0.10;;;12.00;99.90;;;;;;5067221;28;20188;-80
2023/10/18 10:47:43;;;;;;;0.10;0.10;;;12.30;99.90;;;;;;5068234;28;20201;-80
2023/10/18 10:50:10;;;;;;;0.00;0.00;;;12.30;99.90;;;;;;5064260;28;20202;-80
2023/10/18 10:52:40;;;;;;;0.10;0.10;;;12.20;99.90;;;;;;5070438;28;20228;-80
2023/10/18 10:55:22;;;;;;;0.10;0.10;;;11.70;99.90;;;;;;5063501;28;20173;-80
2023/10/18 10:57:49;;;;;;;0.10;0.10;;;11.90;99.90;;;;;;5068247;28;20200;-80
2023/10/18 11:00:37;;;;;;;0.10;0.10;;;11.90;99.90;;;;;;5066782;28;20235;-80
2023/10/18 11:03:30;;;;;;;0.10;0.10;;;12.00;99.90;;;;;;5067163;28;20188;-80
2023/10/18 11:05:58;;;;;;;0.10;0.10;;;12.30;99.90;;;;;;5084215;28;20185;-80
2023/10/18 11:08:27;;;;;;;3.33;3.20;;;12.40;99.90;;;;;;5068386;28;20234;-80
2023/10/18 11:10:54;;;;;;;0.10;0.10;;;12.30;99.90;;;;;;5067333;28;20671;-81
2023/10/18 11:13:22;;;;;;;0.10;0.10;;;12.70;99.90;;;;;;5064553;28;20223;-81
2023/10/18 11:15:54;;;;;;;0.10;0.10;;;12.70;99.90;;;;;;5061983;28;20209;-80
2023/10/18 11:18:28;;;;;;;0.10;0.10;;;13.40;99.90;;;;;;5068139;28;20231;-81
2023/10/18 11:21:05;;;;;;;0.10;0.10;;;13.80;99.90;;;;;;5059681;28;20172;-81
2023/10/18 11:23:33;;;;;;;0.10;0.10;;;13.90;99.90;;;;;;5064180;28;20251;-81
2023/10/18 11:26:00;;;;;;;0.10;0.10;;;14.50;99.90;;;;;;5068480;28;20175;-81
2023/10/18 11:28:29;;;;;;;0.10;0.10;;;15.00;99.90;;;;;;5056045;28;20258;-81
2023/10/18 11:30:56;;;;;;;0.10;0.10;;;14.80;99.90;;;;;;5060666;28;20255;-81
2023/10/18 11:33:46;;;;;;;0.10;0.10;;;14.40;99.90;;;;;;5066460;28;20207;-81
2023/10/18 11:36:18;;;;;;;0.10;0.10;;;14.10;99.90;;;;;;5063383;28;20210;-81
2023/10/18 11:41:35;;;;;;;0.10;0.10;;;14.10;99.90;;;;;;5068824;28;20718;-80
2023/10/18 11:44:08;;;;;;;0.10;0.10;;;14.00;99.90;;;;;;5066364;28;20194;-81
2023/10/18 11:46:47;;;;;;;0.10;0.10;;;13.60;99.90;;;;;;5066238;28;20210;-81
2023/10/18 11:49:19;;;;;;;0.10;0.10;;;13.70;99.90;;;;;;5060986;28;20183;-81
2023/10/18 11:51:48;;;;;;;0.03;0.03;;;13.60;99.90;;;;;;5066481;28;20188;-81
2023/10/18 11:54:30;;;;;;;0.40;0.40;;;13.90;99.90;;;;;;5064617;28;20201;-80
2023/10/18 11:57:00;;;;;;;0.10;0.10;;;14.40;99.90;;;;;;5065635;28;20203;-80
2023/10/18 11:59:28;;;;;;;0.10;0.10;;;14.00;99.90;;;;;;5063083;28;20182;-80
2023/10/18 12:02:04;;;;;;;0.10;0.10;;;14.00;99.90;;;;;;5068720;28;20170;-80
2023/10/18 12:04:37;;;;;;;0.10;0.10;;;13.90;99.90;;;;;;5060469;28;20193;-80
2023/10/18 12:07:04;;;;;;;0.10;0.10;;;14.00;99.90;;;;;;5060653;28;20286;-80
2023/10/18 12:09:42;;;;;;;0.10;0.10;;;13.80;99.90;;;;;;5060945;28;20281;-80
2023/10/18 12:12:20;;;;;;;0.10;0.10;;;13.80;99.90;;;;;;5068366;28;20191;-81
2023/10/18 12:14:47;;;;;;;0.07;0.07;;;13.80;99.90;;;;;;5062790;28;20178;-80
2023/10/18 12:17:14;;;;;;;0.10;0.10;;;14.00;99.90;;;;;;5066711;28;20285;-81
2023/10/18 12:19:41;;;;;;;0.10;0.10;;;14.10;99.90;;;;;;5067283;28;20290;-80
2023/10/18 12:22:10;;;;;;;0.10;0.10;;;14.00;99.90;;;;;;5067710;28;20178;-81
2023/10/18 12:24:38;;;;;;;0.10;0.10;;;14.30;99.90;;;;;;5063597;28;20733;-80
2023/10/18 12:27:34;;;;;;;0.10;0.10;;;14.30;99.90;;;;;;5069727;28;20201;-81
2023/10/18 12:30:09;;;;;;;0.20;0.20;;;14.30;99.90;;;;;;5061606;28;20199;-81
2023/10/18 12:32:42;;;;;;;0.20;0.20;;;14.40;99.90;;;;;;5068069;28;20197;-81
2023/10/18 12:35:15;;;;;;;0.10;0.10;;;14.20;99.90;;;;;;5058581;28;20687;-81
2023/10/18 12:37:41;;;;;;;0.10;0.10;;;13.90;99.90;;;;;;5062600;28;20201;-80
2023/10/18 12:40:27;;;;;;;0.10;0.10;;;13.90;99.90;;;;;;5066878;28;20176;-80
2023/10/18 12:43:01;;;;;;;0.10;0.10;;;13.90;99.90;;;;;;5068885;28;20194;-81
2023/10/18 12:45:27;;;;;;;0.10;0.10;;;13.90;99.90;;;;;;5069702;28;20189;-80
2023/10/18 12:47:53;;;;;;;0.10;0.10;;;14.00;99.90;;;;;;5063411;28;20247;-81
2023/10/18 12:50:19;;;;;;;0.10;0.10;;;14.00;99.90;;;;;;5068253;28;20214;-80
2023/10/18 12:52:46;;;;;;;0.10;0.10;;;14.30;99.90;;;;;;5083282;28;20207;-81
2023/10/18 12:57:56;;;;;;;0.10;0.10;;;14.40;99.90;;;;;;5069525;28;20230;-81
2023/10/18 13:00:25;;;;;;;0.30;0.30;;;14.70;99.90;;;;;;5067261;28;20180;-81
2023/10/18 13:05:22;;;;;;;0.10;0.10;;;14.30;99.90;;;;;;5072026;28;20192;-80
2023/10/18 13:07:52;;;;;;;0.10;0.10;;;14.20;99.90;;;;;;5072323;28;20204;-80
2023/10/18 13:10:29;;;;;;;0.10;0.10;;;14.00;99.90;;;;;;5067152;28;20186;-81
2023/10/18 13:12:55;;;;;;;0.10;0.10;;;14.00;99.90;;;;;;5071765;28;20195;-78
2023/10/18 13:15:25;;;;;;;0.10;0.10;;;14.10;99.90;;;;;;5068549;28;20668;-79
2023/10/18 13:17:51;;;;;;;0.10;0.10;;;14.00;99.90;;;;;;5062922;28;20207;-79
2023/10/18 13:20:24;;;;;;;0.10;0.10;;;14.00;99.90;;;;;;5066608;28;20680;-79
2023/10/18 13:22:55;;;;;;;0.10;0.10;;;14.00;99.90;;;;;;5061138;28;20192;-79
2023/10/18 13:25:37;;;;;;;0.10;0.10;;;14.00;99.90;;;;;;5061621;28;21018;-79
2023/10/18 13:28:07;;;;;;;0.10;0.10;;;14.00;99.90;;;;;;5070150;28;20202;-78
2023/10/18 13:30:33;;;;;;;0.10;0.10;;;14.00;99.90;;;;;;5066610;28;20193;-78
2023/10/18 13:33:11;;;;;;;0.10;0.10;;;14.10;99.90;;;;;;5062671;28;20891;-79
2023/10/18 13:35:39;;;;;;;0.10;0.10;;;14.40;99.90;;;;;;5070323;28;20172;-78
2023/10/18 13:38:04;;;;;;;0.10;0.10;;;14.10;99.90;;;;;;5066993;28;20285;-78
2023/10/18 13:40:31;;;;;;;0.10;0.10;;;14.10;99.90;;;;;;5060859;28;20635;-78
2023/10/18 13:43:00;;;;;;;0.10;0.10;;;14.20;99.90;;;;;;5065873;28;20185;-78
2023/10/18 13:45:27;;;;;;;0.10;0.10;;;14.40;99.90;;;;;;5071325;28;20183;-77
2023/10/18 13:47:53;;;;;;;0.10;0.10;;;14.40;99.90;;;;;;5065811;28;20208;-79
2023/10/18 13:50:18;;;;;;;0.10;0.10;;;14.10;99.90;;;;;;5062342;28;20211;-77
2023/10/18 13:52:46;;;;;;;0.10;0.10;;;14.40;99.90;;;;;;5059849;28;20707;-78
2023/10/18 13:55:14;;;;;;;0.10;0.10;;;14.30;99.90;;;;;;5071783;28;20176;-77